KVAD/VAD METAR and TAF weather

Enter ICAO airport designator
Station Type Date Time Source
KVAD METAR 2020/11/25 21:56 UTC NOAA

KVAD 252156Z AUTO 17007KT 10SM CLR 24/14 A3013 RMK AO2 SLP204 T02400141 $


Station Type Date Time Source
KVAD Decoded METAR 2020/11/25 21:56 UTC NOAA

Moody Air Force Base, GA, United States (KVAD) 30-58N 083-12W 71M
Nov 25, 2020 - 04:56 PM EST / 2020.11.25 2156 UTC
Wind: from the S (170 degrees) at 8 MPH (7 KT):0
Visibility: 10 mile(s):0
Sky conditions: clear
Temperature: 75.2 F (24.0 C)
Dew Point: 57.4 F (14.1 C)
Relative Humidity: 53%
Pressure (altimeter): 30.13 in. Hg (1020 hPa)
ob: KVAD 252156Z AUTO 17007KT 10SM CLR 24/14 A3013 RMK AO2 SLP204 T02400141
cycle: 22

Station Type Date Time Source
KVAD TAF 2020/11/25 17:57 UTC NOAA

TAF COR KVAD 251750Z 2517/2623 15010G15KT 9999 SCT040 QNH3020INS
BECMG 2522/2523 17006KT 9999 SCT040 QNH3018INS
BECMG 2606/2608 18006KT 9999 BKN010 QNH3010INS
BECMG 2614/2615 21010G15KT 9999 BKN025 QNH3010INS TX26/2521Z TN16/2611Z LAST NO
AMDS AFT 2518 NEXT 3009

Example: see airport list